createdAt,value
2023-08-10T00:01:57.666Z,4.53
2023-08-10T00:04:25.091Z,7.45
2023-08-10T00:06:51.822Z,6.57
2023-08-10T00:09:18.577Z,5.22
2023-08-10T00:11:45.447Z,5.75
2023-08-10T00:14:12.184Z,5.63
2023-08-10T00:16:42.143Z,5.05
2023-08-10T00:19:08.928Z,7.60
2023-08-10T00:21:35.738Z,6.25
2023-08-10T00:24:05.819Z,6.60
2023-08-10T00:26:32.681Z,7.85
2023-08-10T00:28:59.802Z,6.63
2023-08-10T00:31:28.027Z,6.75
2023-08-10T00:33:54.807Z,15.05
2023-08-10T00:36:21.917Z,5.47
2023-08-10T00:38:48.586Z,7.30
2023-08-10T00:41:15.330Z,5.18
2023-08-10T00:43:43.788Z,9.70
2023-08-10T00:46:12.925Z,7.15
2023-08-10T00:48:40.148Z,4.82
2023-08-10T00:51:07.061Z,7.55
2023-08-10T00:53:37.571Z,7.25
2023-08-10T00:56:06.126Z,8.35
2023-08-10T00:58:33.418Z,5.90
2023-08-10T01:01:00.193Z,7.95
2023-08-10T01:03:27.167Z,6.07
2023-08-10T01:05:58.800Z,6.60
2023-08-10T01:08:34.967Z,8.23
2023-08-10T01:11:41.204Z,7.25
2023-08-10T01:14:36.238Z,6.90
2023-08-10T01:17:04.974Z,8.88
2023-08-10T01:19:37.027Z,7.18
2023-08-10T01:22:21.920Z,6.95
2023-08-10T01:25:02.221Z,6.18
2023-08-10T01:27:30.933Z,6.28
2023-08-10T01:29:59.776Z,6.13
2023-08-10T01:32:28.483Z,7.75
2023-08-10T01:34:55.408Z,10.38
2023-08-10T01:37:22.770Z,8.85
2023-08-10T01:39:52.844Z,8.25
2023-08-10T01:42:24.482Z,7.78
2023-08-10T01:44:51.218Z,8.90
2023-08-10T01:47:27.804Z,6.50
2023-08-10T01:49:57.395Z,6.80
2023-08-10T01:52:28.329Z,5.82
2023-08-10T01:54:55.613Z,5.47
2023-08-10T01:57:22.387Z,8.75
2023-08-10T01:59:49.110Z,10.70
2023-08-10T02:02:15.901Z,8.60
2023-08-10T02:04:42.679Z,8.48
2023-08-10T02:07:09.477Z,7.78
2023-08-10T02:09:37.151Z,6.30
2023-08-10T02:12:04.360Z,4.97
2023-08-10T02:14:31.330Z,6.95
2023-08-10T02:16:58.041Z,6.13
2023-08-10T02:19:24.784Z,7.20
2023-08-10T02:21:54.720Z,6.30
2023-08-10T02:24:21.477Z,6.85
2023-08-10T02:26:48.190Z,5.18
2023-08-10T02:29:15.015Z,5.43
2023-08-10T02:31:42.190Z,6.03
2023-08-10T02:34:09.338Z,6.00
2023-08-10T02:36:36.028Z,5.97
2023-08-10T02:39:06.134Z,7.60
2023-08-10T02:41:33.411Z,9.85
2023-08-10T02:44:09.727Z,5.10
2023-08-10T02:46:36.601Z,6.55
2023-08-10T02:49:03.337Z,4.88
2023-08-10T02:51:30.982Z,9.82
2023-08-10T02:53:57.805Z,6.30
2023-08-10T02:56:24.553Z,4.30
2023-08-10T02:58:51.296Z,7.00
2023-08-10T03:01:18.409Z,4.88
2023-08-10T03:03:45.293Z,6.30
2023-08-10T03:06:12.298Z,6.32
2023-08-10T03:08:39.035Z,4.57
2023-08-10T03:11:05.831Z,5.57
2023-08-10T03:13:32.548Z,6.50
2023-08-10T03:15:59.811Z,6.90
2023-08-10T03:18:27.391Z,5.65
2023-08-10T03:20:54.111Z,6.35
2023-08-10T03:23:21.159Z,6.93
2023-08-10T03:25:48.026Z,4.63
2023-08-10T03:28:14.742Z,6.40
2023-08-10T03:30:42.431Z,6.30
2023-08-10T03:33:09.271Z,5.75
2023-08-10T03:35:36.030Z,6.90
2023-08-10T03:38:02.810Z,4.32
2023-08-10T03:40:30.044Z,5.35
2023-08-10T03:42:57.025Z,3.85
2023-08-10T03:45:24.538Z,7.72
2023-08-10T03:47:51.340Z,5.93
2023-08-10T03:50:21.386Z,5.28
2023-08-10T03:52:48.250Z,6.68
2023-08-10T03:55:15.815Z,4.97
2023-08-10T03:57:43.179Z,4.45
2023-08-10T04:00:12.329Z,5.72
2023-08-10T04:02:39.821Z,5.47
2023-08-10T04:05:07.716Z,4.70
2023-08-10T04:07:35.653Z,6.60
2023-08-10T04:10:02.715Z,3.75
2023-08-10T04:12:29.755Z,4.00
2023-08-10T04:14:59.789Z,5.95
2023-08-10T04:17:29.762Z,6.90
2023-08-10T04:19:58.303Z,5.63
2023-08-10T04:22:25.877Z,6.47
2023-08-10T04:24:52.999Z,7.05
2023-08-10T04:27:20.022Z,5.90
2023-08-10T04:29:47.542Z,6.22
2023-08-10T04:32:16.010Z,6.68
2023-08-10T04:34:43.844Z,5.93
2023-08-10T04:37:10.568Z,4.22
2023-08-10T04:39:40.421Z,5.03
2023-08-10T04:42:07.705Z,6.18
2023-08-10T04:44:34.926Z,4.22
2023-08-10T04:47:01.986Z,4.95
2023-08-10T04:49:32.467Z,4.07
2023-08-10T04:51:59.215Z,7.47
2023-08-10T04:54:26.033Z,5.15
2023-08-10T04:56:52.870Z,6.45
2023-08-10T04:59:19.767Z,6.68
2023-08-10T05:01:46.540Z,7.30
2023-08-10T05:04:15.833Z,4.45
2023-08-10T05:06:43.614Z,5.40
2023-08-10T05:09:11.000Z,5.28
2023-08-10T05:11:37.900Z,4.93
2023-08-10T05:14:05.642Z,6.70
2023-08-10T05:16:33.232Z,5.57
2023-08-10T05:19:00.060Z,6.07
2023-08-10T05:21:26.914Z,5.03
2023-08-10T05:23:53.590Z,4.15
2023-08-10T05:26:20.864Z,6.38
2023-08-10T05:28:47.542Z,6.28
2023-08-10T05:31:14.337Z,5.53
2023-08-10T05:33:41.018Z,7.45
2023-08-10T05:36:08.606Z,6.13
2023-08-10T05:38:35.328Z,4.95
2023-08-10T05:41:05.170Z,8.45
2023-08-10T05:43:32.165Z,6.00
2023-08-10T05:45:58.829Z,5.78
2023-08-10T05:48:25.518Z,6.40
2023-08-10T05:50:52.318Z,6.13
2023-08-10T05:53:19.054Z,5.70
2023-08-10T05:55:45.720Z,7.18
2023-08-10T05:58:12.475Z,9.70
2023-08-10T06:00:39.343Z,12.23
2023-08-10T06:03:08.580Z,8.68
2023-08-10T06:05:36.449Z,10.18
2023-08-10T06:08:08.422Z,11.60
2023-08-10T06:10:35.537Z,10.52
2023-08-10T06:13:03.335Z,7.97
2023-08-10T06:15:30.109Z,6.03
2023-08-10T06:17:56.829Z,7.57
2023-08-10T06:20:23.535Z,11.77
2023-08-10T06:22:50.692Z,11.43
2023-08-10T06:25:20.598Z,9.00
2023-08-10T06:27:50.716Z,9.35
2023-08-10T06:30:17.920Z,13.85
2023-08-10T06:32:44.713Z,12.20
2023-08-10T06:35:11.484Z,9.80
2023-08-10T06:37:38.674Z,11.57
2023-08-10T06:40:09.682Z,9.80
2023-08-10T06:42:39.424Z,9.63
2023-08-10T06:45:06.788Z,11.57
2023-08-10T06:47:33.562Z,8.85
2023-08-10T06:50:01.649Z,11.63
2023-08-10T06:52:28.655Z,10.82
2023-08-10T06:54:55.379Z,11.70
2023-08-10T06:57:22.212Z,8.10
2023-08-10T07:04:50.486Z,9.35
2023-08-10T07:07:17.226Z,11.13
2023-08-10T07:09:43.961Z,8.88
2023-08-10T07:12:11.108Z,10.90
2023-08-10T07:14:38.093Z,7.47
2023-08-10T07:17:04.996Z,9.95
2023-08-10T07:19:31.959Z,8.18
2023-08-10T07:21:58.655Z,6.65
2023-08-10T07:24:26.529Z,6.72
2023-08-10T07:26:59.411Z,7.53
2023-08-10T07:29:26.043Z,8.05
2023-08-10T07:31:57.053Z,7.45
2023-08-10T07:34:23.746Z,9.30
2023-08-10T07:36:50.415Z,6.85
2023-08-10T07:39:17.128Z,8.05
2023-08-10T07:41:43.896Z,6.93
2023-08-10T07:44:10.660Z,7.30
2023-08-10T07:46:40.339Z,7.68
2023-08-10T07:49:07.161Z,5.28
2023-08-10T07:51:33.844Z,3.95
2023-08-10T07:54:00.616Z,8.52
2023-08-10T07:56:27.226Z,6.35
2023-08-10T07:58:53.874Z,3.67
2023-08-10T08:01:20.577Z,6.10
2023-08-10T08:03:47.343Z,4.63
2023-08-10T08:06:14.386Z,8.45
2023-08-10T08:08:41.243Z,4.55
2023-08-10T08:11:07.880Z,6.40
2023-08-10T08:13:34.612Z,3.38
2023-08-10T08:16:01.404Z,5.57
2023-08-10T08:18:51.040Z,5.70
2023-08-10T08:21:23.011Z,5.45
2023-08-10T08:23:50.726Z,9.68
2023-08-10T08:26:18.991Z,5.95
2023-08-10T08:28:47.345Z,5.13
2023-08-10T08:31:15.167Z,1.95
2023-08-10T08:33:41.936Z,5.15
2023-08-10T08:36:09.632Z,4.13
2023-08-10T08:38:37.773Z,6.85
2023-08-10T08:41:09.500Z,4.85
2023-08-10T08:43:37.779Z,3.88
2023-08-10T08:46:05.894Z,4.85
2023-08-10T08:48:33.187Z,5.60
2023-08-10T08:50:59.940Z,4.93
2023-08-10T08:53:27.168Z,5.28
2023-08-10T08:56:04.404Z,4.53
2023-08-10T08:58:31.161Z,4.22
2023-08-10T09:00:58.123Z,4.28
2023-08-10T09:17:38.491Z,6.07
2023-08-10T09:20:10.330Z,5.65
2023-08-10T09:22:40.258Z,3.50
2023-08-10T09:25:10.875Z,5.65
2023-08-10T09:27:38.223Z,5.00
2023-08-10T09:30:07.679Z,4.03
2023-08-10T09:32:36.120Z,3.58
2023-08-10T09:35:04.719Z,8.35
2023-08-10T09:37:31.969Z,3.10
2023-08-10T09:40:05.272Z,4.10
2023-08-10T09:42:33.374Z,5.20
2023-08-10T09:45:05.560Z,5.18
2023-08-10T09:47:37.427Z,5.53
2023-08-10T09:50:07.371Z,6.97
2023-08-10T09:52:37.603Z,3.83
2023-08-10T09:55:07.072Z,3.58
2023-08-10T09:57:35.079Z,2.42
2023-08-10T10:00:02.872Z,5.22
2023-08-10T10:02:30.267Z,4.75
2023-08-10T10:04:57.574Z,4.22
2023-08-10T10:07:30.086Z,3.33
2023-08-10T10:09:59.857Z,3.10
2023-08-10T10:12:28.011Z,5.45
2023-08-10T10:14:56.313Z,4.32
2023-08-10T10:17:23.540Z,5.53
2023-08-10T10:19:52.548Z,3.47
2023-08-10T10:22:24.144Z,4.18
2023-08-10T10:24:53.029Z,4.75
2023-08-10T10:27:20.869Z,3.80
2023-08-10T10:29:53.310Z,6.07
2023-08-10T10:32:23.318Z,5.38
2023-08-10T10:34:53.852Z,4.50
2023-08-10T10:37:32.506Z,3.50
2023-08-10T10:40:17.947Z,5.38
2023-08-10T10:43:03.977Z,4.35
2023-08-10T10:45:42.387Z,3.28
2023-08-10T10:48:14.248Z,5.68
2023-08-10T10:50:42.178Z,5.80
2023-08-10T10:53:14.604Z,3.83
2023-08-10T10:55:45.063Z,4.22
2023-08-10T10:58:16.729Z,4.25
2023-08-10T11:00:49.150Z,4.45
2023-08-10T11:03:19.484Z,3.15
2023-08-10T11:05:48.281Z,3.35
2023-08-10T11:08:17.146Z,2.45
2023-08-10T11:10:46.065Z,2.85
2023-08-10T11:13:13.374Z,2.85
2023-08-10T11:15:40.644Z,4.50
2023-08-10T11:18:12.858Z,4.13
2023-08-10T11:20:49.137Z,2.90
2023-08-10T11:23:17.131Z,3.63
2023-08-10T11:25:51.495Z,3.92
2023-08-10T11:28:22.760Z,3.08
2023-08-10T11:30:50.381Z,4.88
2023-08-10T11:35:52.012Z,2.83
2023-08-10T11:38:23.105Z,4.20
2023-08-10T11:40:56.313Z,3.92
2023-08-10T11:43:26.743Z,4.53
2023-08-10T11:45:57.518Z,4.63
2023-08-10T11:48:28.357Z,3.10
2023-08-10T11:51:02.835Z,4.30
2023-08-10T11:53:44.784Z,3.83
2023-08-10T11:56:12.064Z,5.30
2023-08-10T11:58:41.153Z,3.33
2023-08-10T12:01:09.074Z,4.43
2023-08-10T12:03:37.200Z,6.35
2023-08-10T12:06:09.494Z,4.22
2023-08-10T12:08:40.428Z,4.80
2023-08-10T12:11:10.997Z,3.60
2023-08-10T12:13:48.316Z,3.28
2023-08-10T12:16:19.022Z,3.20
2023-08-10T12:18:47.047Z,5.78
2023-08-10T12:21:14.786Z,3.33
2023-08-10T12:23:41.844Z,2.53
2023-08-10T12:26:09.176Z,2.85
2023-08-10T12:28:36.375Z,3.92
2023-08-10T12:31:07.848Z,4.50
2023-08-10T12:33:35.962Z,3.83
2023-08-10T12:36:03.909Z,2.70
2023-08-10T12:38:34.312Z,5.28
2023-08-10T12:41:02.198Z,3.95
2023-08-10T12:43:29.613Z,3.65
2023-08-10T12:45:57.135Z,3.33
2023-08-10T12:48:24.527Z,3.15
2023-08-10T12:50:51.900Z,4.55
2023-08-10T12:53:19.235Z,4.00
2023-08-10T12:55:46.676Z,1.85
2023-08-10T12:58:15.844Z,3.72
2023-08-10T13:00:43.078Z,2.30
2023-08-10T13:03:10.486Z,3.70
2023-08-10T13:05:38.153Z,3.85
2023-08-10T13:08:07.654Z,3.70
2023-08-10T13:10:35.050Z,2.15
2023-08-10T13:13:02.442Z,3.22
2023-08-10T13:15:29.934Z,3.40
2023-08-10T13:18:00.357Z,3.70
2023-08-10T13:20:27.799Z,2.67
2023-08-10T13:22:55.080Z,1.98
2023-08-10T13:25:22.366Z,5.10
2023-08-10T13:27:49.672Z,2.90
2023-08-10T13:30:17.959Z,2.17
2023-08-10T13:32:45.384Z,3.00
2023-08-10T13:35:13.537Z,3.58
2023-08-10T13:37:40.724Z,3.78
2023-08-10T13:40:10.183Z,2.78
2023-08-10T13:42:37.257Z,1.67
2023-08-10T13:45:05.231Z,2.90
2023-08-10T13:47:32.262Z,3.30
2023-08-10T13:49:59.612Z,3.42
2023-08-10T13:52:26.965Z,2.38
2023-08-10T13:54:54.298Z,2.72
2023-08-10T13:57:21.569Z,3.20
2023-08-10T13:59:49.086Z,3.15
2023-08-10T14:02:17.266Z,2.40
2023-08-10T14:04:44.747Z,2.85
2023-08-10T14:07:13.632Z,3.72
2023-08-10T14:09:41.985Z,2.70
2023-08-10T14:12:10.063Z,2.70
2023-08-10T14:14:37.609Z,2.30
2023-08-10T14:17:04.974Z,2.83
2023-08-10T14:19:32.228Z,3.45
2023-08-10T14:21:59.495Z,2.70
2023-08-10T14:24:26.745Z,3.53
2023-08-10T14:26:53.912Z,3.90
2023-08-10T14:29:21.073Z,8.38
2023-08-10T14:31:48.365Z,2.42
2023-08-10T14:34:16.443Z,3.45
2023-08-10T14:36:43.739Z,2.30
2023-08-10T14:39:10.979Z,3.88
2023-08-10T14:41:38.331Z,3.45
2023-08-10T14:44:05.610Z,3.55
2023-08-10T14:46:32.977Z,3.83
2023-08-10T14:49:04.884Z,4.03
2023-08-10T14:51:32.503Z,2.65
2023-08-10T14:54:00.220Z,4.03
2023-08-10T14:56:27.551Z,3.45
2023-08-10T14:58:54.688Z,3.35
2023-08-10T15:01:21.837Z,4.45
2023-08-10T15:03:52.084Z,2.58
2023-08-10T15:06:19.492Z,2.72
2023-08-10T15:08:46.631Z,3.25
2023-08-10T15:11:32.051Z,4.32
2023-08-10T16:02:30.989Z,4.88
2023-08-10T16:04:57.723Z,4.63
2023-08-10T16:07:24.410Z,5.70
2023-08-10T16:09:51.076Z,4.13
2023-08-10T16:12:17.756Z,5.03
2023-08-10T16:14:44.493Z,3.00
2023-08-10T16:17:11.292Z,3.30
2023-08-10T16:19:38.289Z,2.55
2023-08-10T16:22:05.513Z,3.55
2023-08-10T16:24:32.405Z,3.58
2023-08-10T16:26:59.432Z,3.95
2023-08-10T16:29:26.232Z,3.40
2023-08-10T16:31:52.986Z,2.80
2023-08-10T16:34:19.699Z,4.10
2023-08-10T16:36:46.670Z,3.38
2023-08-10T16:39:13.443Z,2.65
2023-08-10T16:41:40.155Z,3.70
2023-08-10T16:44:07.214Z,4.57
2023-08-10T16:46:34.012Z,4.22
2023-08-10T16:49:00.721Z,2.28
2023-08-10T16:51:27.516Z,6.55
2023-08-10T16:53:54.564Z,2.40
2023-08-10T16:56:21.479Z,2.55
2023-08-10T16:58:48.201Z,4.20
2023-08-10T17:01:15.770Z,3.67
2023-08-10T17:03:42.577Z,6.30
2023-08-10T17:06:09.333Z,4.28
2023-08-10T17:08:37.345Z,3.30
2023-08-10T17:11:04.458Z,3.85
2023-08-10T17:13:31.589Z,3.20
2023-08-10T17:15:58.460Z,3.13
2023-08-10T17:18:25.315Z,3.10
2023-08-10T17:20:52.097Z,4.35
2023-08-10T17:23:18.893Z,3.38
2023-08-10T17:25:45.668Z,5.82
2023-08-10T17:28:12.534Z,4.47
2023-08-10T17:30:39.323Z,5.47
2023-08-10T17:33:06.418Z,4.00
2023-08-10T17:35:33.522Z,7.28
2023-08-10T17:38:00.422Z,3.97
2023-08-10T17:40:27.403Z,4.55
2023-08-10T17:42:54.214Z,8.73
2023-08-10T17:45:21.004Z,5.95
2023-08-10T17:47:47.865Z,5.28
2023-08-10T17:50:16.099Z,4.60
2023-08-10T17:52:43.915Z,5.03
2023-08-10T17:55:11.239Z,4.53
2023-08-10T17:57:42.177Z,5.82
2023-08-10T18:00:14.266Z,5.30
2023-08-10T18:02:41.463Z,4.43
2023-08-10T18:05:09.573Z,7.70
2023-08-10T18:07:36.974Z,6.30
2023-08-10T18:10:07.416Z,5.78
2023-08-10T18:12:34.921Z,7.10
2023-08-10T18:15:06.788Z,4.47
2023-08-10T18:17:44.018Z,5.05
2023-08-10T18:20:11.694Z,6.00
2023-08-10T18:22:38.466Z,5.25
2023-08-10T18:25:06.013Z,7.38
2023-08-10T18:27:33.221Z,5.32
2023-08-10T18:29:59.952Z,5.80
2023-08-10T18:32:26.825Z,5.25
2023-08-10T18:34:53.565Z,3.42
2023-08-10T18:37:20.502Z,7.32
2023-08-10T18:39:51.306Z,4.80
2023-08-10T18:42:18.438Z,4.47
2023-08-10T18:44:45.298Z,4.40
2023-08-10T18:47:11.963Z,3.38
2023-08-10T18:49:39.676Z,6.53
2023-08-10T18:52:06.853Z,4.28
2023-08-10T18:54:33.715Z,6.00
2023-08-10T18:57:00.469Z,6.20
2023-08-10T18:59:27.247Z,2.60
2023-08-10T19:01:54.292Z,6.20
2023-08-10T19:04:21.114Z,5.47
2023-08-10T19:06:48.095Z,9.25
2023-08-10T19:09:14.813Z,3.30
2023-08-10T19:11:41.500Z,4.80
2023-08-10T19:14:08.257Z,4.68
2023-08-10T19:16:35.146Z,2.95
2023-08-10T19:19:01.949Z,6.28
2023-08-10T19:21:29.033Z,6.10
2023-08-10T19:23:55.783Z,7.70
2023-08-10T19:26:22.354Z,3.95
2023-08-10T19:28:51.247Z,7.03
2023-08-10T19:31:18.087Z,6.70
2023-08-10T19:33:44.799Z,4.32
2023-08-10T19:36:11.521Z,4.72
2023-08-10T19:38:38.189Z,5.72
2023-08-10T19:41:04.984Z,5.47
2023-08-10T19:43:31.721Z,4.05
2023-08-10T19:46:01.470Z,5.03
2023-08-10T19:48:28.220Z,5.65
2023-08-10T19:50:54.900Z,7.68
2023-08-10T19:53:21.710Z,5.18
2023-08-10T19:55:49.959Z,5.43
2023-08-10T19:58:17.681Z,4.68
2023-08-10T20:00:45.022Z,3.90
2023-08-10T20:03:12.221Z,6.78
2023-08-10T20:05:40.309Z,5.65
2023-08-10T20:08:07.101Z,3.50
2023-08-10T20:10:34.904Z,4.53
2023-08-10T20:13:03.110Z,3.35
2023-08-10T20:15:30.038Z,5.45
2023-08-10T20:18:01.602Z,4.43
2023-08-10T20:20:28.809Z,4.55
2023-08-10T20:22:58.471Z,4.93
2023-08-10T20:25:25.658Z,2.60
2023-08-10T20:27:52.834Z,4.35
2023-08-10T20:30:19.782Z,6.68
2023-08-10T20:32:50.098Z,5.75
2023-08-10T20:35:17.376Z,5.63
2023-08-10T20:37:44.385Z,2.88
2023-08-10T20:40:11.374Z,5.32
2023-08-10T20:42:38.801Z,6.05
2023-08-10T20:45:06.071Z,5.22
2023-08-10T20:47:34.910Z,5.03
2023-08-10T20:50:02.248Z,6.00
2023-08-10T20:52:28.995Z,4.95
2023-08-10T20:54:55.680Z,7.65
2023-08-10T20:57:22.368Z,4.93
2023-08-10T20:59:49.236Z,4.82
2023-08-10T21:02:16.861Z,3.47
2023-08-10T21:04:44.755Z,6.85
2023-08-10T21:07:11.515Z,6.25
2023-08-10T21:09:38.253Z,5.80
2023-08-10T21:12:05.586Z,4.05
2023-08-10T21:14:32.278Z,5.28
2023-08-10T21:16:59.038Z,4.13
2023-08-10T21:19:25.805Z,3.40
2023-08-10T21:21:52.570Z,4.97
2023-08-10T21:24:19.311Z,6.30
2023-08-10T21:26:46.077Z,3.55
2023-08-10T21:29:12.794Z,4.15
2023-08-10T21:31:39.464Z,5.55
2023-08-10T21:34:06.177Z,5.88
2023-08-10T21:36:32.928Z,4.97
2023-08-10T21:38:59.984Z,5.25
2023-08-10T21:41:26.872Z,3.58
2023-08-10T21:43:55.009Z,2.38
2023-08-10T21:46:21.852Z,3.25
2023-08-10T21:48:48.583Z,6.50
2023-08-10T21:51:15.221Z,4.53
2023-08-10T21:53:42.035Z,6.55
2023-08-10T21:56:08.726Z,6.03
2023-08-10T21:58:35.458Z,7.68
2023-08-10T22:01:02.162Z,5.53
2023-08-10T22:03:28.896Z,2.30
2023-08-10T22:05:55.627Z,2.90
2023-08-10T22:08:22.375Z,4.40
2023-08-10T22:10:49.284Z,4.65
2023-08-10T22:13:15.985Z,4.00
2023-08-10T22:15:42.753Z,3.20
2023-08-10T22:18:09.433Z,5.60
2023-08-10T22:20:36.753Z,5.22
2023-08-10T22:23:05.448Z,3.97
2023-08-10T22:25:35.595Z,5.18
2023-08-10T22:28:04.611Z,3.92
2023-08-10T22:30:32.636Z,3.17
2023-08-10T22:32:59.888Z,3.70
2023-08-10T22:35:26.818Z,5.53
2023-08-10T22:37:53.512Z,8.95
2023-08-10T22:40:20.432Z,4.80
2023-08-10T22:42:47.747Z,4.03
2023-08-10T22:45:14.639Z,4.80
2023-08-10T22:47:42.254Z,4.80
2023-08-10T22:50:09.434Z,4.82
2023-08-10T22:52:36.218Z,5.32
2023-08-10T22:55:03.011Z,6.93
2023-08-10T22:57:29.938Z,4.75
2023-08-10T22:59:56.637Z,4.38
2023-08-10T23:02:23.420Z,3.80
2023-08-10T23:04:50.362Z,4.15
2023-08-10T23:07:17.133Z,6.57
2023-08-10T23:09:45.080Z,4.55
2023-08-10T23:12:12.179Z,4.65
2023-08-10T23:14:41.060Z,3.63
2023-08-10T23:17:07.920Z,4.10
2023-08-10T23:19:34.674Z,4.15
2023-08-10T23:22:01.700Z,4.35
2023-08-10T23:24:28.639Z,5.43
2023-08-10T23:26:55.430Z,4.07
2023-08-10T23:29:22.575Z,5.75
2023-08-10T23:31:50.600Z,3.75
2023-08-10T23:34:17.937Z,4.80
2023-08-10T23:36:44.696Z,4.43
2023-08-10T23:39:11.985Z,5.80
2023-08-10T23:41:38.893Z,7.68
2023-08-10T23:44:07.385Z,4.32
2023-08-10T23:46:34.101Z,5.85
2023-08-10T23:49:01.599Z,3.50
2023-08-10T23:51:30.805Z,3.00
2023-08-10T23:53:57.866Z,5.47
2023-08-10T23:56:25.039Z,5.95
2023-08-10T23:58:52.031Z,5.90
